createdAt,value
2017-05-26T00:00:39.464Z,71.97
2017-05-26T00:03:05.853Z,73.52
2017-05-26T00:05:32.210Z,69.73
2017-05-26T00:07:58.556Z,67.60
2017-05-26T00:10:24.884Z,70.97
2017-05-26T00:12:51.220Z,72.72
2017-05-26T00:15:17.566Z,70.19
2017-05-26T00:17:43.918Z,70.35
2017-05-26T00:20:10.252Z,73.79
2017-05-26T00:22:36.589Z,77.76
2017-05-26T00:25:02.923Z,79.06
2017-05-26T00:27:29.249Z,80.50
2017-05-26T00:29:55.653Z,79.85
2017-05-26T00:32:21.998Z,79.04
2017-05-26T00:34:48.337Z,76.23
2017-05-26T00:37:14.693Z,77.96
2017-05-26T00:39:41.031Z,78.81
2017-05-26T00:42:07.373Z,78.47
2017-05-26T00:44:33.730Z,81.33
2017-05-26T00:47:00.074Z,79.99
2017-05-26T00:49:26.522Z,71.27
2017-05-26T00:51:52.845Z,68.82
2017-05-26T00:54:19.154Z,77.72
2017-05-26T00:56:45.492Z,72.07
2017-05-26T00:59:11.890Z,73.16
2017-05-26T01:01:38.232Z,81.58
2017-05-26T01:04:04.601Z,80.13
2017-05-26T01:06:30.945Z,80.16
2017-05-26T01:08:57.308Z,75.98
2017-05-26T01:11:23.712Z,72.18
2017-05-26T01:13:50.076Z,69.63
2017-05-26T01:16:16.418Z,76.23
2017-05-26T01:18:42.764Z,79.54
2017-05-26T01:21:09.115Z,79.62
2017-05-26T01:23:35.451Z,82.34
2017-05-26T01:26:01.806Z,76.70
2017-05-26T01:28:28.135Z,71.13
2017-05-26T01:30:55.219Z,68.54
2017-05-26T01:33:22.180Z,68.00
2017-05-26T01:35:48.535Z,68.08
2017-05-26T01:38:14.961Z,77.03
2017-05-26T01:40:41.306Z,79.74
2017-05-26T01:43:07.711Z,79.39
2017-05-26T01:45:34.095Z,75.51
2017-05-26T01:48:00.468Z,77.11
2017-05-26T01:50:26.829Z,80.04
2017-05-26T01:52:53.281Z,79.09
2017-05-26T01:55:19.631Z,82.97
2017-05-26T01:57:46.003Z,83.72
2017-05-26T02:00:12.402Z,79.57
2017-05-26T02:02:38.738Z,79.58
2017-05-26T02:05:05.071Z,77.67
2017-05-26T02:07:31.433Z,77.75
2017-05-26T02:09:57.784Z,74.17
2017-05-26T02:12:24.134Z,75.54
2017-05-26T02:14:50.506Z,77.69
2017-05-26T02:17:16.831Z,78.47
2017-05-26T02:19:43.217Z,80.75
2017-05-26T02:22:09.567Z,83.13
2017-05-26T02:24:35.904Z,82.86
2017-05-26T02:27:02.269Z,83.67
2017-05-26T02:29:28.624Z,81.89
2017-05-26T02:31:54.995Z,77.74
2017-05-26T02:34:21.314Z,76.61
2017-05-26T02:36:47.669Z,78.11
2017-05-26T02:39:13.990Z,79.12
2017-05-26T02:41:40.380Z,74.99
2017-05-26T02:44:06.707Z,79.50
2017-05-26T02:46:33.048Z,78.70
2017-05-26T02:48:59.468Z,79.98
2017-05-26T02:51:25.853Z,83.14
2017-05-26T02:53:52.192Z,82.80
2017-05-26T02:56:18.534Z,83.85
2017-05-26T02:58:44.874Z,82.16
2017-05-26T03:01:11.237Z,82.29
2017-05-26T03:03:37.575Z,80.56
2017-05-26T03:06:03.903Z,80.33
2017-05-26T03:08:30.244Z,74.36
2017-05-26T03:10:56.576Z,78.04
2017-05-26T03:13:22.935Z,73.70
2017-05-26T03:15:49.295Z,71.12
2017-05-26T03:18:15.652Z,70.57
2017-05-26T03:20:41.981Z,74.65
2017-05-26T03:23:08.303Z,80.17
2017-05-26T03:25:34.640Z,79.68
2017-05-26T03:28:01.005Z,75.30
2017-05-26T03:30:27.357Z,71.18
2017-05-26T03:32:53.698Z,70.06
2017-05-26T03:35:20.091Z,73.30
2017-05-26T03:37:46.475Z,79.95
2017-05-26T03:40:12.829Z,80.20
2017-05-26T03:42:39.177Z,78.00
2017-05-26T03:45:05.612Z,81.74
2017-05-26T03:47:31.932Z,80.75
2017-05-26T03:49:58.274Z,78.29
2017-05-26T03:52:24.640Z,82.24
2017-05-26T03:54:51.100Z,78.97
2017-05-26T03:57:17.460Z,79.89
2017-05-26T03:59:43.771Z,77.36
2017-05-26T04:02:10.126Z,73.10
2017-05-26T04:04:36.488Z,73.42
2017-05-26T04:07:02.827Z,74.81
2017-05-26T04:09:29.171Z,77.90
2017-05-26T04:11:55.509Z,80.08
2017-05-26T04:14:21.844Z,77.90
2017-05-26T04:16:48.193Z,81.50
2017-05-26T04:19:14.515Z,82.15
2017-05-26T04:21:40.865Z,77.90
2017-05-26T04:24:07.212Z,77.92
2017-05-26T04:26:33.553Z,80.65
2017-05-26T04:28:59.902Z,82.47
2017-05-26T04:31:26.370Z,81.04
2017-05-26T04:33:52.706Z,83.00
2017-05-26T04:36:19.059Z,80.79
2017-05-26T04:38:45.426Z,75.70
2017-05-26T04:41:11.829Z,72.84
2017-05-26T04:43:38.191Z,73.25
2017-05-26T04:46:04.553Z,72.91
2017-05-26T04:48:30.925Z,74.67
2017-05-26T04:50:57.322Z,79.36
2017-05-26T04:53:23.693Z,82.61
2017-05-26T04:55:50.045Z,76.62
2017-05-26T04:58:16.387Z,73.24
2017-05-26T05:00:42.732Z,75.34
2017-05-26T05:03:09.104Z,73.34
2017-05-26T05:05:35.466Z,72.83
2017-05-26T05:08:01.801Z,77.85
2017-05-26T05:10:28.167Z,73.62
2017-05-26T05:12:54.495Z,72.36
2017-05-26T05:15:20.822Z,72.41
2017-05-26T05:17:47.163Z,73.87
2017-05-26T05:20:13.527Z,73.60
2017-05-26T05:22:39.877Z,72.15
2017-05-26T05:25:06.201Z,73.11
2017-05-26T05:27:32.541Z,76.09
2017-05-26T05:29:58.886Z,81.12
2017-05-26T05:32:25.250Z,77.94
2017-05-26T05:34:51.605Z,77.60
2017-05-26T05:37:17.988Z,80.18
2017-05-26T05:39:44.342Z,76.77
2017-05-26T05:42:10.675Z,80.09
2017-05-26T05:44:36.995Z,78.70
2017-05-26T05:47:03.335Z,80.13
2017-05-26T05:49:29.681Z,80.20
2017-05-26T05:51:56.017Z,80.84
2017-05-26T05:54:22.337Z,75.51
2017-05-26T05:56:48.712Z,81.19
2017-05-26T05:59:15.042Z,79.52
2017-05-26T06:01:41.409Z,77.77
2017-05-26T06:04:07.739Z,80.62
2017-05-26T06:06:34.077Z,81.18
2017-05-26T06:09:00.413Z,79.94
2017-05-26T06:11:26.747Z,80.31
2017-05-26T06:13:53.073Z,81.04
2017-05-26T06:16:19.464Z,77.22
2017-05-26T06:18:45.788Z,79.00
2017-05-26T06:21:12.140Z,79.40
2017-05-26T06:23:38.483Z,78.18
2017-05-26T06:26:04.798Z,79.36
2017-05-26T06:28:31.130Z,78.95
2017-05-26T06:30:57.466Z,77.49
2017-05-26T06:33:23.800Z,78.63
2017-05-26T06:35:50.118Z,77.99
2017-05-26T06:38:16.482Z,77.36
2017-05-26T06:40:42.811Z,76.39
2017-05-26T06:43:09.176Z,76.51
2017-05-26T06:45:35.518Z,75.97
2017-05-26T06:48:01.869Z,76.57
2017-05-26T06:50:28.187Z,76.39
2017-05-26T06:52:54.581Z,76.22
2017-05-26T06:55:20.930Z,73.83
2017-05-26T06:57:47.263Z,72.70
2017-05-26T07:00:13.609Z,73.95
2017-05-26T07:02:39.934Z,73.64
2017-05-26T07:05:06.275Z,73.47
2017-05-26T07:07:32.631Z,74.02
2017-05-26T07:09:59.030Z,73.32
2017-05-26T07:12:25.360Z,72.94
2017-05-26T07:14:51.690Z,72.73
2017-05-26T07:17:18.066Z,71.97
2017-05-26T07:19:44.382Z,71.27
2017-05-26T07:22:10.718Z,71.67
2017-05-26T07:24:37.085Z,71.02
2017-05-26T07:27:03.424Z,70.28
2017-05-26T07:29:29.786Z,69.82
2017-05-26T07:31:56.148Z,69.75
2017-05-26T07:34:22.514Z,70.22
2017-05-26T07:36:48.878Z,68.86
2017-05-26T07:39:15.215Z,67.80
2017-05-26T07:41:41.537Z,67.51
2017-05-26T07:44:07.910Z,68.23
2017-05-26T07:46:34.273Z,68.07
2017-05-26T07:49:00.662Z,67.43
2017-05-26T07:51:27.060Z,66.97
2017-05-26T07:53:53.465Z,66.45
2017-05-26T07:56:19.860Z,66.20
2017-05-26T07:58:46.273Z,64.80
2017-05-26T08:01:12.720Z,65.93
2017-05-26T08:03:39.114Z,64.05
2017-05-26T08:06:05.539Z,63.88
2017-05-26T08:08:31.927Z,62.59
2017-05-26T08:10:58.315Z,64.04
2017-05-26T08:13:24.735Z,63.34
2017-05-26T08:15:51.115Z,62.46
2017-05-26T08:18:17.517Z,61.54
2017-05-26T08:20:43.887Z,62.18
2017-05-26T08:23:10.266Z,62.23
2017-05-26T08:25:36.709Z,59.50
2017-05-26T08:28:03.112Z,60.96
2017-05-26T08:30:29.503Z,58.38
2017-05-26T08:32:55.872Z,59.38
2017-05-26T08:35:22.257Z,56.83
2017-05-26T08:37:48.663Z,57.96
2017-05-26T08:40:15.058Z,57.91
2017-05-26T08:42:41.440Z,57.17
2017-05-26T08:45:07.882Z,55.69
2017-05-26T08:47:34.287Z,55.38
2017-05-26T08:50:00.689Z,58.11
2017-05-26T08:52:27.114Z,56.26
2017-05-26T08:54:53.522Z,55.64
2017-05-26T08:57:19.925Z,57.59
2017-05-26T08:59:46.336Z,54.51
2017-05-26T09:02:12.728Z,54.78
2017-05-26T09:04:39.118Z,54.87
2017-05-26T09:07:05.499Z,52.89
2017-05-26T09:09:31.863Z,54.62
2017-05-26T09:11:58.246Z,53.52
2017-05-26T09:14:24.649Z,53.98
2017-05-26T09:16:51.063Z,52.82
2017-05-26T09:19:17.458Z,53.22
2017-05-26T09:21:43.853Z,53.65
2017-05-26T09:24:10.239Z,52.28
2017-05-26T09:26:36.670Z,52.03
2017-05-26T09:29:03.101Z,52.48
2017-05-26T09:31:29.584Z,51.83
2017-05-26T09:33:55.973Z,51.82
2017-05-26T09:36:22.364Z,50.46
2017-05-26T09:38:48.770Z,50.64
2017-05-26T09:41:15.186Z,52.18
2017-05-26T09:43:41.598Z,50.83
2017-05-26T09:46:08.036Z,51.77
2017-05-26T09:48:34.494Z,49.77
2017-05-26T09:51:00.892Z,52.04
2017-05-26T09:53:27.317Z,52.03
2017-05-26T09:55:53.733Z,48.49
2017-05-26T09:58:20.188Z,49.00
2017-05-26T10:00:46.586Z,49.96
2017-05-26T10:03:12.965Z,48.12
2017-05-26T10:05:39.373Z,48.01
2017-05-26T10:08:05.784Z,50.13
2017-05-26T10:10:32.197Z,47.37
2017-05-26T10:12:58.593Z,46.87
2017-05-26T10:15:25.010Z,47.38
2017-05-26T10:17:51.415Z,44.56
2017-05-26T10:20:17.803Z,46.67
2017-05-26T10:22:44.227Z,45.12
2017-05-26T10:25:10.650Z,44.46
2017-05-26T10:27:37.066Z,44.51
2017-05-26T10:30:03.517Z,43.16
2017-05-26T10:32:29.909Z,43.69
2017-05-26T10:34:56.340Z,40.63
2017-05-26T10:37:22.760Z,41.31
2017-05-26T10:39:49.201Z,42.59
2017-05-26T10:42:15.621Z,43.41
2017-05-26T10:44:42.061Z,42.52
2017-05-26T10:47:08.472Z,40.86
2017-05-26T10:49:35.155Z,40.62
2017-05-26T10:52:01.563Z,41.61
2017-05-26T10:54:32.925Z,38.84
2017-05-26T10:57:02.783Z,40.55
2017-05-26T11:12:37.332Z,39.25
2017-05-26T11:15:04.397Z,37.57
2017-05-26T11:17:31.453Z,39.86
2017-05-26T11:19:57.899Z,39.00
2017-05-26T11:22:24.311Z,39.41
2017-05-26T11:24:50.708Z,39.42
2017-05-26T11:27:17.153Z,38.60
2017-05-26T11:29:43.555Z,38.58
2017-05-26T11:32:10.677Z,38.16
2017-05-26T11:34:37.111Z,38.29
2017-05-26T11:37:03.523Z,36.74
2017-05-26T11:39:30.560Z,38.36
2017-05-26T11:41:57.018Z,39.00
2017-05-26T11:44:24.084Z,38.93
2017-05-26T11:46:50.490Z,38.54
2017-05-26T11:49:16.895Z,37.80
2017-05-26T11:51:43.328Z,39.52
2017-05-26T11:54:09.737Z,37.45
2017-05-26T11:56:36.450Z,37.16
2017-05-26T11:59:02.883Z,37.26
2017-05-26T12:01:29.268Z,37.36
2017-05-26T12:03:55.667Z,35.55
2017-05-26T12:06:22.117Z,35.17
2017-05-26T12:08:48.495Z,36.46
2017-05-26T12:11:14.965Z,36.99
2017-05-26T12:13:41.371Z,35.92
2017-05-26T12:16:07.771Z,35.58
2017-05-26T12:18:35.041Z,35.54
2017-05-26T12:21:01.478Z,35.01
2017-05-26T12:23:27.928Z,35.93
2017-05-26T12:25:54.536Z,36.29
2017-05-26T12:28:21.026Z,35.48
2017-05-26T12:30:47.476Z,33.73
2017-05-26T12:33:13.840Z,35.62
2017-05-26T12:35:40.302Z,34.62
2017-05-26T12:38:06.762Z,34.33
2017-05-26T12:40:33.155Z,34.03
2017-05-26T12:42:59.545Z,33.20
2017-05-26T12:45:25.947Z,34.78
2017-05-26T12:47:52.338Z,33.91
2017-05-26T12:50:18.810Z,33.85
2017-05-26T12:52:45.234Z,32.96
2017-05-26T12:55:11.630Z,32.78
2017-05-26T12:57:38.024Z,33.47
2017-05-26T13:00:04.913Z,33.77
2017-05-26T13:02:31.333Z,34.03
2017-05-26T13:04:58.149Z,33.33
2017-05-26T13:07:28.024Z,32.42
2017-05-26T13:09:54.471Z,33.45
2017-05-26T13:12:23.385Z,33.58
2017-05-26T13:14:49.956Z,34.03
2017-05-26T13:17:16.340Z,33.02
2017-05-26T13:19:42.715Z,34.55
2017-05-26T13:22:09.122Z,34.27
2017-05-26T13:24:35.516Z,33.55
2017-05-26T13:27:01.916Z,34.04
2017-05-26T13:29:28.300Z,33.49
2017-05-26T13:31:54.741Z,35.49
2017-05-26T13:34:22.518Z,36.04
2017-05-26T13:36:48.908Z,33.78
2017-05-26T13:39:15.320Z,34.15
2017-05-26T13:41:41.798Z,34.43
2017-05-26T13:44:08.207Z,35.37
2017-05-26T13:46:36.268Z,35.62
2017-05-26T13:49:02.900Z,35.32
2017-05-26T13:51:29.340Z,35.66
2017-05-26T13:53:56.288Z,33.65
2017-05-26T13:56:22.694Z,35.65
2017-05-26T13:58:49.126Z,34.41
2017-05-26T14:01:15.528Z,35.85
2017-05-26T14:03:41.908Z,34.51
2017-05-26T14:06:08.302Z,35.36
2017-05-26T14:08:34.726Z,35.04
2017-05-26T14:11:01.176Z,36.07
2017-05-26T14:19:09.370Z,34.85
2017-05-26T14:21:45.142Z,34.90
2017-05-26T14:24:11.563Z,35.28
2017-05-26T14:26:44.726Z,34.91
2017-05-26T14:29:16.396Z,35.43
2017-05-26T14:31:42.971Z,34.85
2017-05-26T14:34:09.343Z,34.92
2017-05-26T14:36:35.771Z,35.87
2017-05-26T14:39:02.278Z,35.14
2017-05-26T14:41:28.696Z,35.32
2017-05-26T14:43:55.676Z,34.74
2017-05-26T14:46:22.129Z,34.60
2017-05-26T14:48:49.303Z,34.55
2017-05-26T14:51:15.704Z,33.15
2017-05-26T14:53:42.113Z,33.75
2017-05-26T14:56:08.795Z,34.10
2017-05-26T14:58:36.044Z,34.28
2017-05-26T15:01:02.614Z,34.35
2017-05-26T15:03:29.040Z,34.50
2017-05-26T15:05:55.461Z,34.83
2017-05-26T15:08:21.862Z,33.77
2017-05-26T15:10:48.270Z,34.43
2017-05-26T15:13:14.680Z,33.40
2017-05-26T15:15:41.219Z,33.62
2017-05-26T15:18:07.904Z,34.00
2017-05-26T15:20:34.318Z,34.55
2017-05-26T15:23:00.720Z,34.87
2017-05-26T15:25:27.112Z,33.83
2017-05-26T15:27:53.523Z,34.09
2017-05-26T15:30:19.942Z,33.93
2017-05-26T15:32:46.369Z,34.33
2017-05-26T15:35:12.815Z,34.45
2017-05-26T15:37:39.475Z,34.46
2017-05-26T15:40:06.032Z,34.01
2017-05-26T15:42:33.183Z,34.55
2017-05-26T15:44:59.585Z,34.39
2017-05-26T15:47:26.483Z,34.26
2017-05-26T15:49:53.031Z,35.46
2017-05-26T15:52:19.451Z,34.85
2017-05-26T15:54:45.827Z,34.63
2017-05-26T15:57:12.236Z,34.15
2017-05-26T15:59:38.663Z,34.61
2017-05-26T16:02:05.082Z,34.95
2017-05-26T16:04:31.678Z,31.91
2017-05-26T16:06:58.133Z,34.21
2017-05-26T16:09:24.573Z,33.56
2017-05-26T16:11:50.943Z,33.99
2017-05-26T16:14:17.335Z,34.02
2017-05-26T16:16:43.820Z,35.21
2017-05-26T16:19:10.204Z,34.58
2017-05-26T16:21:36.588Z,35.79
2017-05-26T16:24:02.994Z,34.46
2017-05-26T16:26:29.609Z,34.96
2017-05-26T16:28:55.995Z,33.98
2017-05-26T16:31:22.330Z,35.26
2017-05-26T16:33:48.679Z,35.26
2017-05-26T16:36:15.077Z,34.36
2017-05-26T16:38:41.464Z,35.16
2017-05-26T16:41:07.817Z,34.73
2017-05-26T16:43:34.206Z,35.18
2017-05-26T16:46:00.548Z,34.81
2017-05-26T16:48:26.887Z,34.72
2017-05-26T16:50:53.242Z,34.91
2017-05-26T16:53:19.616Z,34.49
2017-05-26T16:55:45.965Z,34.97
2017-05-26T16:58:12.297Z,35.24
2017-05-26T17:00:38.630Z,35.16
2017-05-26T17:03:05.011Z,35.71
2017-05-26T17:05:31.418Z,34.98
2017-05-26T17:07:57.748Z,34.92
2017-05-26T17:10:24.079Z,36.05
2017-05-26T17:12:50.473Z,35.19
2017-05-26T17:15:16.837Z,35.81
2017-05-26T17:17:43.185Z,35.58
2017-05-26T17:20:09.539Z,36.66
2017-05-26T17:22:35.857Z,36.22
2017-05-26T17:25:02.210Z,35.72
2017-05-26T17:27:28.610Z,36.03
2017-05-26T17:29:54.997Z,37.98
2017-05-26T17:32:21.339Z,36.79
2017-05-26T17:34:47.763Z,37.64
2017-05-26T17:37:14.130Z,37.60
2017-05-26T17:39:40.483Z,38.60
2017-05-26T17:42:06.832Z,38.20
2017-05-26T17:44:33.185Z,39.10
2017-05-26T17:46:59.544Z,39.35
2017-05-26T17:49:25.966Z,39.41
2017-05-26T17:51:52.361Z,39.77
2017-05-26T17:54:18.753Z,39.92
2017-05-26T17:56:45.151Z,39.24
2017-05-26T17:59:11.561Z,39.70
2017-05-26T18:01:37.882Z,40.67
2017-05-26T18:04:04.308Z,40.97
2017-05-26T18:06:30.702Z,40.48
2017-05-26T18:08:57.059Z,40.37
2017-05-26T18:11:23.448Z,40.88
2017-05-26T18:13:49.787Z,41.64
2017-05-26T18:16:16.108Z,41.62
2017-05-26T18:18:42.491Z,42.03
2017-05-26T18:21:09.236Z,41.83
2017-05-26T18:23:35.664Z,42.27
2017-05-26T18:26:02.037Z,42.19
2017-05-26T18:28:28.516Z,42.29
2017-05-26T18:30:54.893Z,42.34
2017-05-26T18:33:21.254Z,42.52
2017-05-26T18:35:47.599Z,42.27
2017-05-26T18:38:14.639Z,42.54
2017-05-26T18:40:41.122Z,42.64
2017-05-26T18:43:07.466Z,43.03
2017-05-26T18:45:33.816Z,43.09
2017-05-26T18:48:00.487Z,43.18
2017-05-26T18:50:26.882Z,43.08
2017-05-26T18:52:53.203Z,43.19
2017-05-26T18:55:19.671Z,43.44
2017-05-26T18:57:46.077Z,44.32
2017-05-26T19:00:12.540Z,43.83
2017-05-26T19:02:38.940Z,43.63
2017-05-26T19:05:05.280Z,44.64
2017-05-26T19:07:31.628Z,43.82
2017-05-26T19:09:58.003Z,43.99
2017-05-26T19:12:24.373Z,43.99
2017-05-26T19:14:50.731Z,44.58
2017-05-26T19:17:17.157Z,45.27
2017-05-26T19:19:43.522Z,44.45
2017-05-26T19:22:09.889Z,44.19
2017-05-26T19:24:36.278Z,45.07
2017-05-26T19:27:02.615Z,44.88
2017-05-26T19:29:29.011Z,45.21
2017-05-26T19:31:55.363Z,45.07
2017-05-26T19:34:21.691Z,45.03
2017-05-26T19:36:48.110Z,45.79
2017-05-26T19:39:14.451Z,46.56
2017-05-26T19:41:40.781Z,46.72
2017-05-26T19:44:07.141Z,46.54
2017-05-26T19:46:33.478Z,46.67
2017-05-26T19:48:59.803Z,46.24
2017-05-26T19:51:26.135Z,46.26
2017-05-26T19:53:52.497Z,46.56
2017-05-26T19:56:18.933Z,46.69
2017-05-26T19:58:45.290Z,47.06
2017-05-26T20:01:11.629Z,47.03
2017-05-26T20:03:37.961Z,47.14
2017-05-26T20:06:05.118Z,47.15
2017-05-26T20:08:31.501Z,46.83
2017-05-26T20:10:57.882Z,47.38
2017-05-26T20:13:24.306Z,47.80
2017-05-26T20:15:50.673Z,47.39
2017-05-26T20:18:17.003Z,48.28
2017-05-26T20:20:43.833Z,48.35
2017-05-26T20:23:10.159Z,48.99
2017-05-26T20:25:36.874Z,48.78
2017-05-26T20:28:03.646Z,48.94
2017-05-26T20:30:30.119Z,49.56
2017-05-26T20:32:56.595Z,49.04
2017-05-26T20:35:23.013Z,48.83
2017-05-26T20:37:49.428Z,49.50
2017-05-26T20:40:15.768Z,48.42
2017-05-26T20:42:42.148Z,48.94
2017-05-26T20:45:08.491Z,48.85
2017-05-26T20:47:34.938Z,50.89
2017-05-26T20:50:01.295Z,50.61
2017-05-26T20:52:27.614Z,51.02
2017-05-26T20:54:53.982Z,50.67
2017-05-26T20:57:20.358Z,51.32
2017-05-26T20:59:46.704Z,50.49
2017-05-26T21:02:13.034Z,51.08
2017-05-26T21:04:39.352Z,52.52
2017-05-26T21:07:05.703Z,53.62
2017-05-26T21:09:32.032Z,51.82
2017-05-26T21:11:58.379Z,53.06
2017-05-26T21:14:24.717Z,52.13
2017-05-26T21:16:51.044Z,53.60
2017-05-26T21:19:17.422Z,52.82
2017-05-26T21:21:43.764Z,53.33
2017-05-26T21:24:10.120Z,51.97
2017-05-26T21:26:36.466Z,52.06
2017-05-26T21:29:02.802Z,53.53
2017-05-26T21:31:29.160Z,53.92
2017-05-26T21:33:55.566Z,54.62
2017-05-26T21:36:21.909Z,54.02
2017-05-26T21:38:48.337Z,55.60
2017-05-26T21:41:14.673Z,55.75
2017-05-26T21:43:41.130Z,56.13
2017-05-26T21:46:07.492Z,56.69
2017-05-26T21:48:33.909Z,55.53
2017-05-26T21:51:00.246Z,54.69
2017-05-26T21:53:26.593Z,54.93
2017-05-26T21:55:53.351Z,54.11
2017-05-26T21:58:19.707Z,55.76
2017-05-26T22:00:46.163Z,56.46
2017-05-26T22:03:12.533Z,58.00
2017-05-26T22:05:38.985Z,58.44
2017-05-26T22:08:05.516Z,57.94
2017-05-26T22:10:32.157Z,58.10
2017-05-26T22:12:58.603Z,58.04
2017-05-26T22:15:24.956Z,56.92
2017-05-26T22:17:51.321Z,60.15
2017-05-26T22:20:17.675Z,58.64
2017-05-26T22:22:44.041Z,58.28
2017-05-26T22:25:10.489Z,56.86
2017-05-26T22:27:36.823Z,56.38
2017-05-26T22:30:03.206Z,60.60
2017-05-26T22:32:29.581Z,62.32
2017-05-26T22:34:55.934Z,63.40
2017-05-26T22:37:22.432Z,63.72
2017-05-26T22:39:48.866Z,63.83
2017-05-26T22:42:15.203Z,64.26
2017-05-26T22:44:41.555Z,63.12
2017-05-26T22:47:07.982Z,63.80
2017-05-26T22:49:34.348Z,64.68
2017-05-26T22:52:00.702Z,63.90
2017-05-26T22:54:27.071Z,62.52
2017-05-26T22:56:53.460Z,60.22
2017-05-26T22:59:19.839Z,59.73
2017-05-26T23:01:46.164Z,60.35
2017-05-26T23:04:12.544Z,64.21
2017-05-26T23:06:38.892Z,63.83
2017-05-26T23:09:05.273Z,66.67
2017-05-26T23:11:31.630Z,67.05
2017-05-26T23:13:57.971Z,67.36
2017-05-26T23:16:24.329Z,66.50
2017-05-26T23:18:50.659Z,67.77
2017-05-26T23:21:17.011Z,69.25
2017-05-26T23:23:43.414Z,67.26
2017-05-26T23:26:09.744Z,69.19
2017-05-26T23:28:36.093Z,65.84
2017-05-26T23:31:02.449Z,68.34
2017-05-26T23:33:29.110Z,67.83
2017-05-26T23:35:55.552Z,66.71
2017-05-26T23:38:21.900Z,67.84
2017-05-26T23:40:48.260Z,68.67
2017-05-26T23:43:14.655Z,66.73
2017-05-26T23:45:41.018Z,69.07
2017-05-26T23:48:07.387Z,69.03
2017-05-26T23:50:33.788Z,68.13
2017-05-26T23:53:00.133Z,67.31
2017-05-26T23:55:26.953Z,65.75
2017-05-26T23:57:53.358Z,64.67
